Time,TemperatureF,DewpointF,PressureIn,WindDirection,WindDirectionDegrees,WindSpeedMPH,WindSpeedGustMPH,Humidity,HourlyPrecipIn,Conditions,Clouds,dailyrainin,SoftwareType,DateUTC
2013-02-18 00:00:00,10.1,5.2,30.23,West,275,7.0,7.0,80,0.00,,,0.00,Wunderground v.1.15,2013-02-18 05:00:00,
2013-02-18 00:05:00,10.3,5.4,30.23,West,259,8.0,8.0,80,0.00,,,0.00,Wunderground v.1.15,2013-02-18 05:05:00,
2013-02-18 00:10:00,10.3,5.4,30.23,West,277,7.0,10.0,80,0.00,,,0.00,Wunderground v.1.15,2013-02-18 05:10:00,
2013-02-18 00:15:00,10.3,5.4,30.23,WNW,288,6.0,10.0,80,0.00,,,0.00,Wunderground v.1.15,2013-02-18 05:15:00,
2013-02-18 00:20:00,10.2,5.3,30.23,West,267,8.0,8.0,80,0.00,,,0.00,Wunderground v.1.15,2013-02-18 05:20:00,
2013-02-18 00:25:00,10.1,5.2,30.23,WNW,283,7.0,8.0,80,0.00,,,0.00,Wunderground v.1.15,2013-02-18 05:25:00,
2013-02-18 00:30:00,10.9,5.9,30.23,WNW,287,5.0,7.0,80,0.00,,,0.00,Wunderground v.1.15,2013-02-18 05:30:00,
2013-02-18 00:35:00,9.9,5.2,30.23,WNW,282,4.0,7.0,81,0.00,,,0.00,Wunderground v.1.15,2013-02-18 05:35:00,
2013-02-18 00:40:00,9.6,5.2,30.23,West,274,5.0,7.0,82,0.00,,,0.00,Wunderground v.1.15,2013-02-18 05:40:00,
2013-02-18 00:45:00,9.8,5.7,30.23,West,263,5.0,9.0,83,0.00,,,0.00,Wunderground v.1.15,2013-02-18 05:45:00,
2013-02-18 00:50:00,9.8,5.4,30.23,West,274,6.0,6.0,82,0.00,,,0.00,Wunderground v.1.15,2013-02-18 05:50:00,
2013-02-18 00:55:00,10.0,5.9,30.23,West,263,6.0,7.0,83,0.00,,,0.00,Wunderground v.1.15,2013-02-18 05:55:00,
2013-02-18 01:05:00,10.0,5.6,30.23,West,276,7.0,7.0,82,0.00,,,0.00,Wunderground v.1.15,2013-02-18 06:05:00,
2013-02-18 01:10:00,10.1,5.7,30.23,West,279,5.0,7.0,82,0.00,,,0.00,Wunderground v.1.15,2013-02-18 06:10:00,
2013-02-18 01:15:00,10.2,5.8,30.23,West,270,5.0,7.0,82,0.00,,,0.00,Wunderground v.1.15,2013-02-18 06:15:00,
2013-02-18 01:20:00,10.1,5.7,30.24,West,271,5.0,5.0,82,0.00,,,0.00,Wunderground v.1.15,2013-02-18 06:20:00,
2013-02-18 01:25:00,9.9,5.5,30.24,West,276,4.0,7.0,82,0.00,,,0.00,Wunderground v.1.15,2013-02-18 06:25:00,
2013-02-18 01:35:00,10.1,5.7,30.24,WNW,288,6.0,7.0,82,0.00,,,0.00,Wunderground v.1.15,2013-02-18 06:35:00,
2013-02-18 01:40:00,9.9,5.5,30.24,West,281,5.0,5.0,82,0.00,,,0.00,Wunderground v.1.15,2013-02-18 06:40:00,
2013-02-18 01:45:00,9.8,5.7,30.24,West,268,4.0,7.0,83,0.00,,,0.00,Wunderground v.1.15,2013-02-18 06:45:00,
2013-02-18 01:50:00,9.9,5.8,30.24,West,281,4.0,7.0,83,0.00,,,0.00,Wunderground v.1.15,2013-02-18 06:50:00,
2013-02-18 01:55:00,10.1,6.0,30.24,West,265,5.0,7.0,83,0.00,,,0.00,Wunderground v.1.15,2013-02-18 06:55:00,
2013-02-18 02:00:00,10.1,5.7,30.24,WSW,256,5.0,5.0,82,0.00,,,0.00,Wunderground v.1.15,2013-02-18 07:00:00,
2013-02-18 02:10:00,10.3,5.6,30.25,West,271,5.0,5.0,81,0.00,,,0.00,Wunderground v.1.15,2013-02-18 07:10:00,
2013-02-18 02:15:00,10.4,5.7,30.25,West,274,6.0,12.0,81,0.00,,,0.00,Wunderground v.1.15,2013-02-18 07:15:00,
2013-02-18 02:20:00,10.7,6.0,30.25,West,277,7.0,7.0,81,0.00,,,0.00,Wunderground v.1.15,2013-02-18 07:20:00,
2013-02-18 02:25:00,10.8,6.1,30.25,West,268,8.0,9.0,81,0.00,,,0.00,Wunderground v.1.15,2013-02-18 07:25:00,
2013-02-18 02:30:00,10.6,5.9,30.25,West,279,7.0,7.0,81,0.00,,,0.00,Wunderground v.1.15,2013-02-18 07:30:00,
2013-02-18 02:39:00,10.7,5.7,30.25,WNW,287,7.0,7.0,80,0.00,,,0.00,Wunderground v.1.15,2013-02-18 07:39:00,
2013-02-18 02:45:00,10.5,5.5,30.25,West,264,6.0,7.0,80,0.00,,,0.00,Wunderground v.1.15,2013-02-18 07:45:00,
2013-02-18 02:50:00,10.1,5.4,30.26,West,267,4.0,7.0,81,0.00,,,0.00,Wunderground v.1.15,2013-02-18 07:50:00,
2013-02-18 02:55:00,9.7,5.0,30.26,West,260,4.0,7.0,81,0.00,,,0.00,Wunderground v.1.15,2013-02-18 07:55:00,
2013-02-18 03:00:00,9.6,5.2,30.26,West,261,5.0,5.0,82,0.00,,,0.00,Wunderground v.1.15,2013-02-18 08:00:00,
2013-02-18 03:05:00,9.5,5.1,30.26,WSW,258,5.0,7.0,82,0.00,,,0.00,Wunderground v.1.15,2013-02-18 08:05:00,
2013-02-18 03:15:00,9.4,5.3,30.27,WSW,242,3.0,7.0,83,0.00,,,0.00,Wunderground v.1.15,2013-02-18 08:15:00,
2013-02-18 03:20:00,9.5,5.6,30.27,SW,234,3.0,7.0,84,0.00,,,0.00,Wunderground v.1.15,2013-02-18 08:20:00,
2013-02-18 03:25:00,9.7,5.8,30.27,West,270,3.0,7.0,84,0.00,,,0.00,Wunderground v.1.15,2013-02-18 08:25:00,
2013-02-18 03:30:00,9.6,5.5,30.27,West,259,3.0,3.0,83,0.00,,,0.00,Wunderground v.1.15,2013-02-18 08:30:00,
2013-02-18 03:35:00,9.6,5.5,30.27,WSW,246,2.0,4.0,83,0.00,,,0.00,Wunderground v.1.15,2013-02-18 08:35:00,
2013-02-18 03:40:00,9.6,5.5,30.27,WSW,252,3.0,7.0,83,0.00,,,0.00,Wunderground v.1.15,2013-02-18 08:40:00,
2013-02-18 03:45:00,9.6,5.5,30.27,West,266,3.0,7.0,83,0.00,,,0.00,Wunderground v.1.15,2013-02-18 08:45:00,
2013-02-18 03:50:00,9.6,5.7,30.27,WSW,250,2.0,7.0,84,0.00,,,0.00,Wunderground v.1.15,2013-02-18 08:50:00,
2013-02-18 03:59:00,9.8,5.9,30.28,West,271,2.0,7.0,84,0.00,,,0.00,Wunderground v.1.15,2013-02-18 08:59:00,
2013-02-18 04:04:00,9.8,5.9,30.28,West,263,3.0,7.0,84,0.00,,,0.00,Wunderground v.1.15,2013-02-18 09:04:00,
2013-02-18 04:09:00,9.9,5.8,30.28,West,268,2.0,2.0,83,0.00,,,0.00,Wunderground v.1.15,2013-02-18 09:09:00,
2013-02-18 04:15:00,9.9,5.8,30.28,West,268,2.0,7.0,83,0.00,,,0.00,Wunderground v.1.15,2013-02-18 09:15:00,
2013-02-18 04:20:00,10.0,5.9,30.28,West,259,2.0,2.0,83,0.00,,,0.00,Wunderground v.1.15,2013-02-18 09:20:00,
2013-02-18 04:25:00,10.2,6.3,30.28,SW,232,2.0,7.0,84,0.00,,,0.00,Wunderground v.1.15,2013-02-18 09:25:00,
2013-02-18 04:30:00,10.3,6.2,30.28,WNW,285,2.0,7.0,83,0.00,,,0.00,Wunderground v.1.15,2013-02-18 09:30:00,
2013-02-18 04:35:00,10.6,6.7,30.28,SW,236,2.0,7.0,84,0.00,,,0.00,Wunderground v.1.15,2013-02-18 09:35:00,
2013-02-18 04:40:00,10.8,6.7,30.28,West,273,2.0,7.0,83,0.00,,,0.00,Wunderground v.1.15,2013-02-18 09:40:00,
2013-02-18 04:50:00,11.0,6.8,30.29,West,269,3.0,3.0,83,0.00,,,0.00,Wunderground v.1.15,2013-02-18 09:50:00,
2013-02-18 04:55:00,11.2,7.0,30.29,WSW,255,3.0,4.0,83,0.00,,,0.00,Wunderground v.1.15,2013-02-18 09:55:00,
2013-02-18 05:00:00,11.2,7.0,30.29,West,265,2.0,2.0,83,0.00,,,0.00,Wunderground v.1.15,2013-02-18 10:00:00,
2013-02-18 05:05:00,11.3,7.1,30.29,WSW,247,2.0,4.0,83,0.00,,,0.00,Wunderground v.1.15,2013-02-18 10:05:00,
2013-02-18 05:10:00,11.5,7.3,30.30,WSW,251,3.0,7.0,83,0.00,,,0.00,Wunderground v.1.15,2013-02-18 10:10:00,
2013-02-18 05:20:00,11.6,7.4,30.30,WSW,249,3.0,9.0,83,0.00,,,0.00,Wunderground v.1.15,2013-02-18 10:20:00,
2013-02-18 05:25:00,11.5,7.6,30.30,WSW,240,4.0,9.0,84,0.00,,,0.00,Wunderground v.1.15,2013-02-18 10:25:00,
2013-02-18 05:30:00,11.5,7.6,30.30,WSW,246,4.0,7.0,84,0.00,,,0.00,Wunderground v.1.15,2013-02-18 10:30:00,
2013-02-18 05:35:00,11.6,7.7,30.30,WSW,242,4.0,7.0,84,0.00,,,0.00,Wunderground v.1.15,2013-02-18 10:35:00,
2013-02-18 05:40:00,11.6,7.7,30.30,SW,216,5.0,7.0,84,0.00,,,0.00,Wunderground v.1.15,2013-02-18 10:40:00,
2013-02-18 05:45:00,11.6,7.7,30.30,WSW,246,5.0,7.0,84,0.00,,,0.00,Wunderground v.1.15,2013-02-18 10:45:00,
2013-02-18 05:55:00,11.5,7.6,30.30,WSW,242,4.0,8.0,84,0.00,,,0.00,Wunderground v.1.15,2013-02-18 10:55:00,
2013-02-18 06:00:00,11.3,7.4,30.31,West,265,4.0,7.0,84,0.00,,,0.00,Wunderground v.1.15,2013-02-18 11:00:00,
2013-02-18 06:05:00,11.3,7.4,30.30,WSW,242,4.0,7.0,84,0.00,,,0.00,Wunderground v.1.15,2013-02-18 11:05:00,
2013-02-18 06:15:00,11.3,7.7,30.31,WSW,254,4.0,7.0,85,0.00,,,0.00,Wunderground v.1.15,2013-02-18 11:15:00,
2013-02-18 06:20:00,11.2,7.3,30.31,WSW,238,4.0,4.0,84,0.00,,,0.00,Wunderground v.1.15,2013-02-18 11:20:00,
2013-02-18 06:30:00,11.0,7.4,30.31,SW,235,4.0,7.0,85,0.00,,,0.00,Wunderground v.1.15,2013-02-18 11:30:00,
2013-02-18 06:35:00,10.9,7.3,30.31,SW,224,3.0,7.0,85,0.00,,,0.00,Wunderground v.1.15,2013-02-18 11:35:00,
2013-02-18 06:40:00,10.8,7.2,30.31,WSW,251,3.0,7.0,85,0.00,,,0.00,Wunderground v.1.15,2013-02-18 11:40:00,
2013-02-18 06:45:00,10.7,7.1,30.31,SW,224,3.0,7.0,85,0.00,,,0.00,Wunderground v.1.15,2013-02-18 11:45:00,
2013-02-18 06:50:00,10.5,6.9,30.31,WSW,241,3.0,7.0,85,0.00,,,0.00,Wunderground v.1.15,2013-02-18 11:50:00,
2013-02-18 07:00:00,10.4,6.8,30.31,WSW,239,3.0,3.0,85,0.00,,,0.00,Wunderground v.1.15,2013-02-18 12:00:00,
2013-02-18 07:05:00,10.4,7.0,30.31,WSW,250,3.0,4.0,86,0.00,,,0.00,Wunderground v.1.15,2013-02-18 12:05:00,
2013-02-18 07:10:00,10.3,6.9,30.31,SW,217,3.0,7.0,86,0.00,,,0.00,Wunderground v.1.15,2013-02-18 12:10:00,
2013-02-18 07:15:00,10.2,6.8,30.32,SW,229,3.0,7.0,86,0.00,,,0.00,Wunderground v.1.15,2013-02-18 12:15:00,
2013-02-18 07:20:00,10.2,6.8,30.32,WSW,241,2.0,7.0,86,0.00,,,0.00,Wunderground v.1.15,2013-02-18 12:20:00,
2013-02-18 07:25:00,10.2,6.8,30.32,WSW,247,3.0,7.0,86,0.00,,,0.00,Wunderground v.1.15,2013-02-18 12:25:00,
2013-02-18 07:35:00,10.3,6.9,30.32,SW,236,2.0,7.0,86,0.00,,,0.00,Wunderground v.1.15,2013-02-18 12:35:00,
2013-02-18 07:40:00,10.3,6.9,30.32,WSW,253,2.0,2.0,86,0.00,,,0.00,Wunderground v.1.15,2013-02-18 12:40:00,
2013-02-18 07:45:00,10.5,7.1,30.32,WSW,253,2.0,7.0,86,0.00,,,0.00,Wunderground v.1.15,2013-02-18 12:45:00,
2013-02-18 07:55:00,10.9,7.5,30.32,WSW,253,2.0,7.0,86,0.00,,,0.00,Wunderground v.1.15,2013-02-18 12:55:00,
2013-02-18 08:00:00,11.1,7.7,30.32,WSW,241,2.0,7.0,86,0.00,,,0.00,Wunderground v.1.15,2013-02-18 13:00:00,
2013-02-18 08:09:00,11.3,7.7,30.32,SW,217,3.0,7.0,85,0.00,,,0.00,Wunderground v.1.15,2013-02-18 13:09:00,
2013-02-18 08:15:00,11.4,7.8,30.32,SW,217,3.0,7.0,85,0.00,,,0.00,Wunderground v.1.15,2013-02-18 13:15:00,
2013-02-18 08:20:00,11.7,8.1,30.32,SSW,204,4.0,4.0,85,0.00,,,0.00,Wunderground v.1.15,2013-02-18 13:20:00,
2013-02-18 08:25:00,11.9,8.0,30.32,SSW,207,4.0,7.0,84,0.00,,,0.00,Wunderground v.1.15,2013-02-18 13:25:00,
2013-02-18 08:30:00,12.4,8.5,30.32,SSW,206,3.0,3.0,84,0.00,,,0.00,Wunderground v.1.15,2013-02-18 13:30:00,
2013-02-18 08:35:00,13.0,8.8,30.32,SSW,202,2.0,7.0,83,0.00,,,0.00,Wunderground v.1.15,2013-02-18 13:35:00,
2013-02-18 08:40:00,13.6,9.1,30.32,WSW,237,1.0,1.0,82,0.00,,,0.00,Wunderground v.1.15,2013-02-18 13:40:00,
2013-02-18 08:45:00,14.1,9.3,30.32,WSW,237,1.0,7.0,81,0.00,,,0.00,Wunderground v.1.15,2013-02-18 13:45:00,
2013-02-18 08:50:00,14.4,9.4,30.31,WSW,237,1.0,1.0,80,0.00,,,0.00,Wunderground v.1.15,2013-02-18 13:50:00,
2013-02-18 08:55:00,14.4,9.4,30.31,West,259,1.0,2.0,80,0.00,,,0.00,Wunderground v.1.15,2013-02-18 13:55:00,
2013-02-18 09:00:00,14.4,9.1,30.31,WSW,254,2.0,7.0,79,0.00,,,0.00,Wunderground v.1.15,2013-02-18 14:00:00,
2013-02-18 09:10:00,14.6,9.0,30.31,West,265,2.0,2.0,78,0.00,,,0.00,Wunderground v.1.15,2013-02-18 14:10:00,
2013-02-18 09:15:00,14.7,9.1,30.31,West,265,0.0,7.0,78,0.00,,,0.00,Wunderground v.1.15,2013-02-18 14:15:00,
2013-02-18 09:20:00,15.2,9.6,30.30,West,265,0.0,7.0,78,0.00,,,0.00,Wunderground v.1.15,2013-02-18 14:20:00,
2013-02-18 09:25:00,15.8,9.9,30.30,West,265,0.0,7.0,77,0.00,,,0.00,Wunderground v.1.15,2013-02-18 14:25:00,
2013-02-18 09:30:00,17.2,11.8,30.30,West,265,0.0,7.0,79,0.00,,,0.00,Wunderground v.1.15,2013-02-18 14:30:00,
2013-02-18 09:35:00,18.9,12.6,30.30,West,264,0.0,7.0,76,0.00,,,0.00,Wunderground v.1.15,2013-02-18 14:35:00,
2013-02-18 09:45:00,21.4,13.5,30.29,ESE,109,0.0,7.0,71,0.00,,,0.00,Wunderground v.1.15,2013-02-18 14:45:00,
2013-02-18 09:50:00,22.0,13.0,30.29,East,90,1.0,7.0,68,0.00,,,0.00,Wunderground v.1.15,2013-02-18 14:50:00,
2013-02-18 09:55:00,22.2,13.2,30.30,East,86,1.0,7.0,68,0.00,,,0.00,Wunderground v.1.15,2013-02-18 14:55:00,
2013-02-18 10:00:00,23.0,14.0,30.30,East,86,0.0,7.0,68,0.00,,,0.00,Wunderground v.1.15,2013-02-18 15:00:00,
2013-02-18 10:05:00,23.3,12.9,30.29,East,86,0.0,7.0,64,0.00,,,0.00,Wunderground v.1.15,2013-02-18 15:05:00,
2013-02-18 10:15:00,21.8,11.8,30.30,East,84,0.0,7.0,65,0.00,,,0.00,Wunderground v.1.15,2013-02-18 15:15:00,
2013-02-18 10:20:00,21.3,12.0,30.30,ENE,63,0.0,7.0,67,0.00,,,0.00,Wunderground v.1.15,2013-02-18 15:20:00,
2013-02-18 10:25:00,21.8,12.9,30.30,ENE,63,0.0,7.0,68,0.00,,,0.00,Wunderground v.1.15,2013-02-18 15:25:00,
2013-02-18 10:30:00,22.1,11.8,30.30,ENE,63,0.0,7.0,64,0.00,,,0.00,Wunderground v.1.15,2013-02-18 15:30:00,
2013-02-18 10:35:00,22.1,12.1,30.30,West,261,0.0,7.0,65,0.00,,,0.00,Wunderground v.1.15,2013-02-18 15:35:00,
2013-02-18 10:40:00,21.1,11.5,30.30,SW,229,1.0,7.0,66,0.00,,,0.00,Wunderground v.1.15,2013-02-18 15:40:00,
2013-02-18 10:50:00,20.5,11.6,30.29,West,267,3.0,3.0,68,0.00,,,0.00,Wunderground v.1.15,2013-02-18 15:50:00,
2013-02-18 10:55:00,20.8,12.2,30.29,SSW,207,7.0,7.0,69,0.00,,,0.00,Wunderground v.1.15,2013-02-18 15:55:00,
2013-02-18 11:00:00,21.1,12.5,30.29,SW,234,5.0,5.0,69,0.00,,,0.00,Wunderground v.1.15,2013-02-18 16:00:00,
2013-02-18 11:05:00,21.3,12.4,30.29,SSW,212,4.0,7.0,68,0.00,,,0.00,Wunderground v.1.15,2013-02-18 16:05:00,
2013-02-18 11:10:00,21.4,12.1,30.29,SW,216,4.0,4.0,67,0.00,,,0.00,Wunderground v.1.15,2013-02-18 16:10:00,
2013-02-18 11:20:00,22.5,12.8,30.28,West,281,2.0,2.0,66,0.00,,,0.00,Wunderground v.1.15,2013-02-18 16:20:00,
2013-02-18 11:25:00,21.8,12.9,30.28,SW,219,2.0,5.0,68,0.00,,,0.00,Wunderground v.1.15,2013-02-18 16:25:00,
2013-02-18 11:30:00,21.7,12.1,30.28,West,261,3.0,7.0,66,0.00,,,0.00,Wunderground v.1.15,2013-02-18 16:30:00,
2013-02-18 11:35:00,21.3,12.4,30.28,SW,224,3.0,7.0,68,0.00,,,0.00,Wunderground v.1.15,2013-02-18 16:35:00,
2013-02-18 11:40:00,21.9,13.0,30.27,SSW,213,3.0,3.0,68,0.00,,,0.00,Wunderground v.1.15,2013-02-18 16:40:00,
2013-02-18 11:50:00,22.7,12.7,30.27,SSW,207,1.0,7.0,65,0.00,,,0.00,Wunderground v.1.15,2013-02-18 16:50:00,
2013-02-18 11:59:00,24.4,14.3,30.26,SE,144,0.0,7.0,65,0.00,,,0.00,Wunderground v.1.15,2013-02-18 16:59:00,
2013-02-18 12:04:00,25.1,13.9,30.26,SW,215,0.0,7.0,62,0.00,,,0.00,Wunderground v.1.15,2013-02-18 17:04:00,
2013-02-18 12:09:00,25.6,14.7,30.25,SSW,205,1.0,7.0,63,0.00,,,0.00,Wunderground v.1.15,2013-02-18 17:09:00,
2013-02-18 12:15:00,26.1,14.8,30.25,SSE,150,1.0,7.0,62,0.00,,,0.00,Wunderground v.1.15,2013-02-18 17:15:00,
2013-02-18 12:20:00,26.3,14.3,30.24,South,191,1.0,7.0,60,0.00,,,0.00,Wunderground v.1.15,2013-02-18 17:20:00,
2013-02-18 12:25:00,26.2,14.2,30.24,SSE,148,1.0,7.0,60,0.00,,,0.00,Wunderground v.1.15,2013-02-18 17:25:00,
2013-02-18 12:30:00,27.0,15.7,30.24,SSE,158,1.0,7.0,62,0.00,,,0.00,Wunderground v.1.15,2013-02-18 17:30:00,
2013-02-18 12:39:00,26.9,15.2,30.24,ESE,115,2.0,2.0,61,0.00,,,0.00,Wunderground v.1.15,2013-02-18 17:39:00,
2013-02-18 12:44:00,26.7,15.4,30.24,South,173,2.0,7.0,62,0.00,,,0.00,Wunderground v.1.15,2013-02-18 17:44:00,
2013-02-18 12:49:00,26.4,14.4,30.23,SSE,165,3.0,3.0,60,0.00,,,0.00,Wunderground v.1.15,2013-02-18 17:49:00,
2013-02-18 12:55:00,26.3,14.7,30.23,SE,138,3.0,7.0,61,0.00,,,0.00,Wunderground v.1.15,2013-02-18 17:55:00,
2013-02-18 13:00:00,26.9,16.0,30.22,South,173,3.0,3.0,63,0.00,,,0.00,Wunderground v.1.15,2013-02-18 18:00:00,
2013-02-18 13:05:00,27.2,15.5,30.22,SSE,153,2.0,5.0,61,0.00,,,0.00,Wunderground v.1.15,2013-02-18 18:05:00,
2013-02-18 13:10:00,27.1,15.4,30.22,SSE,167,2.0,7.0,61,0.00,,,0.00,Wunderground v.1.15,2013-02-18 18:10:00,
2013-02-18 13:15:00,26.9,15.6,30.21,SE,137,3.0,7.0,62,0.00,,,0.00,Wunderground v.1.15,2013-02-18 18:15:00,
2013-02-18 13:20:00,26.5,14.9,30.21,SE,132,4.0,7.0,61,0.00,,,0.00,Wunderground v.1.15,2013-02-18 18:20:00,
2013-02-18 13:25:00,26.7,15.8,30.21,ESE,118,4.0,7.0,63,0.00,,,0.00,Wunderground v.1.15,2013-02-18 18:25:00,
2013-02-18 13:35:00,27.2,15.5,30.20,South,178,4.0,7.0,61,0.00,,,0.00,Wunderground v.1.15,2013-02-18 18:35:00,
2013-02-18 13:40:00,27.9,16.2,30.20,SSW,200,3.0,3.0,61,0.00,,,0.00,Wunderground v.1.15,2013-02-18 18:40:00,
2013-02-18 13:45:00,27.9,14.6,30.20,SE,143,3.0,5.0,57,0.00,,,0.00,Wunderground v.1.15,2013-02-18 18:45:00,
2013-02-18 13:50:00,27.9,15.0,30.19,SSE,159,4.0,4.0,58,0.00,,,0.00,Wunderground v.1.15,2013-02-18 18:50:00,
2013-02-18 13:55:00,28.1,15.2,30.18,South,171,4.0,7.0,58,0.00,,,0.00,Wunderground v.1.15,2013-02-18 18:55:00,
2013-02-18 14:00:00,28.3,15.4,30.18,ESE,120,4.0,7.0,58,0.00,,,0.00,Wunderground v.1.15,2013-02-18 19:00:00,
2013-02-18 14:05:00,28.5,15.2,30.18,SE,135,4.0,12.0,57,0.00,,,0.00,Wunderground v.1.15,2013-02-18 19:05:00,
2013-02-18 14:10:00,28.7,15.0,30.18,ESE,122,4.0,4.0,56,0.00,,,0.00,Wunderground v.1.15,2013-02-18 19:10:00,
2013-02-18 14:15:00,29.0,15.7,30.18,SW,215,3.0,7.0,57,0.00,,,0.00,Wunderground v.1.15,2013-02-18 19:15:00,
2013-02-18 14:20:00,29.4,15.6,30.18,South,175,3.0,3.0,56,0.00,,,0.00,Wunderground v.1.15,2013-02-18 19:20:00,
2013-02-18 14:25:00,29.7,15.1,30.18,ESE,103,3.0,8.0,54,0.00,,,0.00,Wunderground v.1.15,2013-02-18 19:25:00,
2013-02-18 14:30:00,29.6,15.0,30.17,South,187,3.0,7.0,54,0.00,,,0.00,Wunderground v.1.15,2013-02-18 19:30:00,
2013-02-18 14:40:00,29.8,15.6,30.17,SSE,163,4.0,7.0,55,0.00,,,0.00,Wunderground v.1.15,2013-02-18 19:40:00,
2013-02-18 14:45:00,30.1,15.4,30.16,SE,133,3.0,7.0,54,0.00,,,0.00,Wunderground v.1.15,2013-02-18 19:45:00,
2013-02-18 14:50:00,30.5,15.4,30.17,SSW,199,3.0,3.0,53,0.00,,,0.00,Wunderground v.1.15,2013-02-18 19:50:00,
2013-02-18 14:55:00,31.0,15.0,30.16,SW,221,4.0,7.0,51,0.00,,,0.00,Wunderground v.1.15,2013-02-18 19:55:00,
2013-02-18 15:00:00,31.2,15.2,30.16,South,180,3.0,3.0,51,0.00,,,0.00,Wunderground v.1.15,2013-02-18 20:00:00,
2013-02-18 15:10:00,30.9,14.4,30.16,ESE,108,3.0,3.0,50,0.00,,,0.00,Wunderground v.1.15,2013-02-18 20:10:00,
2013-02-18 15:15:00,30.8,16.9,30.16,SE,136,3.0,7.0,56,0.00,,,0.00,Wunderground v.1.15,2013-02-18 20:15:00,
2013-02-18 15:20:00,30.8,16.9,30.16,SE,136,3.0,7.0,56,0.00,,,0.00,Wunderground v.1.15,2013-02-18 20:20:00,
2013-02-18 15:25:00,30.9,14.9,30.15,ESE,105,3.0,7.0,51,0.00,,,0.00,Wunderground v.1.15,2013-02-18 20:25:00,
2013-02-18 15:30:00,30.9,14.9,30.15,ESE,114,3.0,7.0,51,0.00,,,0.00,Wunderground v.1.15,2013-02-18 20:30:00,
2013-02-18 15:35:00,31.0,14.5,30.15,SE,126,3.0,7.0,50,0.00,,,0.00,Wunderground v.1.15,2013-02-18 20:35:00,
2013-02-18 15:40:00,31.2,14.7,30.14,ESE,123,2.0,2.0,50,0.00,,,0.00,Wunderground v.1.15,2013-02-18 20:40:00,
2013-02-18 15:45:00,31.3,14.8,30.15,SSE,159,2.0,7.0,50,0.00,,,0.00,Wunderground v.1.15,2013-02-18 20:45:00,
2013-02-18 15:50:00,31.4,14.9,30.14,SSE,160,2.0,2.0,50,0.00,,,0.00,Wunderground v.1.15,2013-02-18 20:50:00,
2013-02-18 15:55:00,31.5,14.5,30.14,SE,134,1.0,7.0,49,0.00,,,0.00,Wunderground v.1.15,2013-02-18 20:55:00,
2013-02-18 16:00:00,31.6,15.5,30.14,SE,128,1.0,1.0,51,0.00,,,0.00,Wunderground v.1.15,2013-02-18 21:00:00,
2013-02-18 16:05:00,31.8,17.0,30.14,ESE,107,1.0,7.0,54,0.00,,,0.00,Wunderground v.1.15,2013-02-18 21:05:00,
2013-02-18 16:15:00,32.1,19.8,30.13,ESE,116,2.0,7.0,60,0.00,,,0.00,Wunderground v.1.15,2013-02-18 21:15:00,
2013-02-18 16:20:00,32.0,18.5,30.13,ESE,122,1.0,1.0,57,0.00,,,0.00,Wunderground v.1.15,2013-02-18 21:20:00,
2013-02-18 16:25:00,31.9,18.4,30.13,East,101,1.0,2.0,57,0.00,,,0.00,Wunderground v.1.15,2013-02-18 21:25:00,
2013-02-18 16:30:00,31.8,19.5,30.13,East,101,2.0,2.0,60,0.00,,,0.00,Wunderground v.1.15,2013-02-18 21:30:00,
2013-02-18 16:35:00,31.7,19.0,30.12,East,101,2.0,7.0,59,0.00,,,0.00,Wunderground v.1.15,2013-02-18 21:35:00,
2013-02-18 16:40:00,31.6,18.1,30.12,SE,140,1.0,7.0,57,0.00,,,0.00,Wunderground v.1.15,2013-02-18 21:40:00,
2013-02-18 16:50:00,31.3,17.4,30.12,ESE,122,2.0,7.0,56,0.00,,,0.00,Wunderground v.1.15,2013-02-18 21:50:00,
2013-02-18 16:55:00,31.2,17.3,30.12,SE,126,2.0,7.0,56,0.00,,,0.00,Wunderground v.1.15,2013-02-18 21:55:00,
2013-02-18 17:00:00,31.1,17.6,30.11,SE,133,2.0,7.0,57,0.00,,,0.00,Wunderground v.1.15,2013-02-18 22:00:00,
2013-02-18 17:05:00,30.9,17.4,30.11,ESE,115,2.0,7.0,57,0.00,,,0.00,Wunderground v.1.15,2013-02-18 22:05:00,
2013-02-18 17:10:00,30.7,17.7,30.11,ESE,108,2.0,2.0,58,0.00,,,0.00,Wunderground v.1.15,2013-02-18 22:10:00,
2013-02-18 17:20:00,30.4,18.2,30.10,ESE,108,1.0,7.0,60,0.00,,,0.00,Wunderground v.1.15,2013-02-18 22:20:00,
2013-02-18 17:25:00,30.2,17.6,30.10,ESE,115,1.0,7.0,59,0.00,,,0.00,Wunderground v.1.15,2013-02-18 22:25:00,
2013-02-18 17:30:00,30.0,17.8,30.10,ESE,115,1.0,1.0,60,0.00,,,0.00,Wunderground v.1.15,2013-02-18 22:30:00,
2013-02-18 17:35:00,29.9,18.1,30.10,ESE,115,0.0,7.0,61,0.00,,,0.00,Wunderground v.1.15,2013-02-18 22:35:00,
2013-02-18 17:40:00,29.7,18.3,30.09,ESE,115,0.0,7.0,62,0.00,,,0.00,Wunderground v.1.15,2013-02-18 22:40:00,
2013-02-18 17:45:00,29.4,18.3,30.09,ESE,115,0.0,7.0,63,0.00,,,0.00,Wunderground v.1.15,2013-02-18 22:45:00,
2013-02-18 17:50:00,29.1,18.8,30.09,ESE,115,0.0,7.0,65,0.00,,,0.00,Wunderground v.1.15,2013-02-18 22:50:00,
2013-02-18 17:55:00,28.9,18.2,30.09,ESE,115,0.0,7.0,64,0.00,,,0.00,Wunderground v.1.15,2013-02-18 22:55:00,
2013-02-18 18:00:00,28.6,18.3,30.09,ESE,115,0.0,7.0,65,0.00,,,0.00,Wunderground v.1.15,2013-02-18 23:00:00,
2013-02-18 18:05:00,28.2,18.3,30.09,ESE,115,0.0,7.0,66,0.00,,,0.00,Wunderground v.1.15,2013-02-18 23:05:00,
2013-02-18 18:10:00,27.9,18.4,30.09,ESE,115,0.0,7.0,67,0.00,,,0.00,Wunderground v.1.15,2013-02-18 23:10:00,
2013-02-18 18:15:00,27.7,18.2,30.09,ESE,115,0.0,7.0,67,0.00,,,0.00,Wunderground v.1.15,2013-02-18 23:15:00,
2013-02-18 18:25:00,27.3,18.5,30.09,ESE,115,0.0,7.0,69,0.00,,,0.00,Wunderground v.1.15,2013-02-18 23:25:00,
2013-02-18 18:30:00,27.1,18.3,30.09,ESE,115,0.0,7.0,69,0.00,,,0.00,Wunderground v.1.15,2013-02-18 23:30:00,
2013-02-18 18:35:00,27.1,18.3,30.09,ESE,115,0.0,7.0,69,0.00,,,0.00,Wunderground v.1.15,2013-02-18 23:35:00,
2013-02-18 18:40:00,27.2,18.0,30.08,ESE,115,0.0,7.0,68,0.00,,,0.00,Wunderground v.1.15,2013-02-18 23:40:00,
2013-02-18 18:45:00,27.2,18.0,30.08,ESE,115,0.0,7.0,68,0.00,,,0.00,Wunderground v.1.15,2013-02-18 23:45:00,
2013-02-18 18:50:00,27.2,18.4,30.08,ESE,115,0.0,7.0,69,0.00,,,0.00,Wunderground v.1.15,2013-02-18 23:50:00,
2013-02-18 19:00:00,26.9,18.4,30.07,ESE,115,0.0,7.0,70,0.00,,,0.00,Wunderground v.1.15,2013-02-19 00:00:00,
2013-02-18 19:05:00,26.7,18.6,30.07,ESE,115,0.0,7.0,71,0.00,,,0.00,Wunderground v.1.15,2013-02-19 00:05:00,
2013-02-18 19:10:00,26.7,18.6,30.06,ESE,115,0.0,7.0,71,0.00,,,0.00,Wunderground v.1.15,2013-02-19 00:10:00,
2013-02-18 19:15:00,26.7,18.6,30.06,ESE,115,0.0,7.0,71,0.00,,,0.00,Wunderground v.1.15,2013-02-19 00:15:00,
2013-02-18 19:20:00,26.7,18.2,30.06,ESE,115,0.0,7.0,70,0.00,,,0.00,Wunderground v.1.15,2013-02-19 00:20:00,
2013-02-18 19:30:00,26.7,18.9,30.05,ESE,115,0.0,7.0,72,0.00,,,0.00,Wunderground v.1.15,2013-02-19 00:30:00,
2013-02-18 19:35:00,26.6,19.1,30.05,ESE,115,0.0,7.0,73,0.00,,,0.00,Wunderground v.1.15,2013-02-19 00:35:00,
2013-02-18 19:40:00,26.5,18.7,30.05,ESE,115,0.0,7.0,72,0.00,,,0.00,Wunderground v.1.15,2013-02-19 00:40:00,
2013-02-18 19:45:00,26.4,18.9,30.04,ESE,115,0.0,7.0,73,0.00,,,0.00,Wunderground v.1.15,2013-02-19 00:45:00,
2013-02-18 19:50:00,26.4,18.9,30.04,ESE,115,0.0,7.0,73,0.00,,,0.00,Wunderground v.1.15,2013-02-19 00:50:00,
2013-02-18 19:55:00,26.3,18.5,30.04,ESE,115,0.0,7.0,72,0.00,,,0.00,Wunderground v.1.15,2013-02-19 00:55:00,
2013-02-18 20:00:00,26.5,18.0,30.04,ESE,115,0.0,7.0,70,0.00,,,0.00,Wunderground v.1.15,2013-02-19 01:00:00,
2013-02-18 20:05:00,26.9,18.1,30.03,ESE,115,0.0,7.0,69,0.00,,,0.00,Wunderground v.1.15,2013-02-19 01:05:00,
2013-02-18 20:10:00,27.4,17.9,30.03,ESE,115,0.0,7.0,67,0.00,,,0.00,Wunderground v.1.15,2013-02-19 01:10:00,
2013-02-18 20:15:00,27.8,17.6,30.02,ESE,115,0.0,7.0,65,0.00,,,0.00,Wunderground v.1.15,2013-02-19 01:15:00,
2013-02-18 20:20:00,28.6,17.6,30.02,SE,127,0.0,7.0,63,0.00,,,0.00,Wunderground v.1.15,2013-02-19 01:20:00,
2013-02-18 20:30:00,29.8,17.2,30.02,SE,127,0.0,7.0,59,0.00,,,0.00,Wunderground v.1.15,2013-02-19 01:30:00,
2013-02-18 20:40:00,30.6,17.2,30.01,SE,134,1.0,7.0,57,0.00,,,0.00,Wunderground v.1.15,2013-02-19 01:40:00,
2013-02-18 20:45:00,30.9,17.4,30.00,SE,133,1.0,7.0,57,0.00,,,0.00,Wunderground v.1.15,2013-02-19 01:45:00,
2013-02-18 20:50:00,31.1,17.6,30.00,SSE,157,1.0,1.0,57,0.00,,,0.00,Wunderground v.1.15,2013-02-19 01:50:00,
2013-02-18 20:55:00,31.2,17.7,30.00,South,182,1.0,7.0,57,0.00,,,0.00,Wunderground v.1.15,2013-02-19 01:55:00,
2013-02-18 21:00:00,31.4,17.5,30.00,South,180,1.0,1.0,56,0.00,,,0.00,Wunderground v.1.15,2013-02-19 02:00:00,
2013-02-18 21:05:00,31.6,17.7,30.00,South,174,1.0,7.0,56,0.00,,,0.00,Wunderground v.1.15,2013-02-19 02:05:00,
2013-02-18 21:15:00,31.6,18.1,30.00,ESE,123,1.0,7.0,57,0.00,,,0.00,Wunderground v.1.15,2013-02-19 02:15:00,
2013-02-18 21:20:00,31.6,17.7,30.00,SE,137,1.0,7.0,56,0.00,,,0.00,Wunderground v.1.15,2013-02-19 02:20:00,
2013-02-18 21:25:00,31.7,17.8,30.00,SSE,148,2.0,7.0,56,0.00,,,0.00,Wunderground v.1.15,2013-02-19 02:25:00,
2013-02-18 21:30:00,31.7,17.8,29.99,SSE,155,2.0,2.0,56,0.00,,,0.00,Wunderground v.1.15,2013-02-19 02:30:00,
2013-02-18 21:40:00,31.7,18.2,29.99,SSW,194,1.0,1.0,57,0.00,,,0.00,Wunderground v.1.15,2013-02-19 02:40:00,
2013-02-18 21:50:00,31.6,18.1,29.99,SSW,209,0.0,7.0,57,0.00,,,0.00,Wunderground v.1.15,2013-02-19 02:50:00,
2013-02-18 21:55:00,31.7,18.2,29.99,SSW,199,0.0,7.0,57,0.00,,,0.00,Wunderground v.1.15,2013-02-19 02:55:00,
2013-02-18 22:00:00,31.8,18.3,29.98,SSE,147,1.0,7.0,57,0.00,,,0.00,Wunderground v.1.15,2013-02-19 03:00:00,
2013-02-18 22:05:00,32.0,18.5,29.98,South,169,1.0,7.0,57,0.00,,,0.00,Wunderground v.1.15,2013-02-19 03:05:00,
2013-02-18 22:10:00,32.0,18.5,29.98,WSW,239,1.0,7.0,57,0.00,,,0.00,Wunderground v.1.15,2013-02-19 03:10:00,
2013-02-18 22:20:00,32.6,18.6,29.98,SSW,213,2.0,7.0,56,0.00,,,0.00,Wunderground v.1.15,2013-02-19 03:20:00,
2013-02-18 22:25:00,33.0,19.4,29.98,SSW,209,2.0,7.0,57,0.00,,,0.00,Wunderground v.1.15,2013-02-19 03:25:00,
2013-02-18 22:30:00,33.1,19.1,29.98,SSW,208,3.0,3.0,56,0.00,,,0.00,Wunderground v.1.15,2013-02-19 03:30:00,
2013-02-18 22:35:00,33.8,19.3,29.98,SSW,192,2.0,7.0,55,0.00,,,0.00,Wunderground v.1.15,2013-02-19 03:35:00,
2013-02-18 22:40:00,34.1,19.6,29.98,SSW,205,10.0,10.0,55,0.00,,,0.00,Wunderground v.1.15,2013-02-19 03:40:00,
2013-02-18 22:45:00,34.4,19.9,29.97,SSE,164,4.0,10.0,55,0.00,,,0.00,Wunderground v.1.15,2013-02-19 03:45:00,
2013-02-18 22:55:00,34.8,20.3,29.97,SSW,196,3.0,7.0,55,0.00,,,0.00,Wunderground v.1.15,2013-02-19 03:55:00,
2013-02-18 23:00:00,35.0,20.4,29.97,South,188,5.0,7.0,55,0.00,,,0.00,Wunderground v.1.15,2013-02-19 04:00:00,
2013-02-18 23:05:00,35.2,21.5,29.96,SSE,153,4.0,7.0,57,0.00,,,0.00,Wunderground v.1.15,2013-02-19 04:05:00,
2013-02-18 23:10:00,35.1,21.4,29.96,SSE,153,3.0,7.0,57,0.00,,,0.00,Wunderground v.1.15,2013-02-19 04:10:00,
2013-02-18 23:15:00,35.1,21.4,29.95,SSE,153,3.0,7.0,57,0.00,,,0.00,Wunderground v.1.15,2013-02-19 04:15:00,
2013-02-18 23:25:00,34.7,21.0,29.95,ESE,113,3.0,7.0,57,0.00,,,0.00,Wunderground v.1.15,2013-02-19 04:25:00,
2013-02-18 23:30:00,34.4,20.7,29.95,SW,220,9.0,9.0,57,0.00,,,0.00,Wunderground v.1.15,2013-02-19 04:30:00,
2013-02-18 23:35:00,34.2,20.5,29.95,SSE,165,4.0,9.0,57,0.00,,,0.00,Wunderground v.1.15,2013-02-19 04:35:00,
2013-02-18 23:40:00,33.9,20.7,29.94,SW,225,5.0,7.0,58,0.00,,,0.00,Wunderground v.1.15,2013-02-19 04:40:00,
2013-02-18 23:45:00,33.8,20.6,29.94,SW,231,4.0,7.0,58,0.00,,,0.00,Wunderground v.1.15,2013-02-19 04:45:00,
2013-02-18 23:50:00,33.8,20.6,29.94,SW,221,5.0,5.0,58,0.00,,,0.00,Wunderground v.1.15,2013-02-19 04:50:00,
2013-02-18 23:55:00,33.7,20.5,29.94,SSW,205,5.0,6.0,58,0.00,,,0.00,Wunderground v.1.15,2013-02-19 04:55:00,